sensor_id;sensor_type;location;lat;lon;timestamp;temperature;humidity
1700;DHT22;847;48.058;7.810;2023-09-07T00:00:31;19.40;99.00
1700;DHT22;847;48.058;7.810;2023-09-07T00:02:58;19.30;99.00
1700;DHT22;847;48.058;7.810;2023-09-07T00:05:25;19.40;99.00
1700;DHT22;847;48.058;7.810;2023-09-07T00:07:53;19.40;99.00
1700;DHT22;847;48.058;7.810;2023-09-07T00:10:21;19.40;99.00
1700;DHT22;847;48.058;7.810;2023-09-07T00:12:48;19.40;99.00
1700;DHT22;847;48.058;7.810;2023-09-07T00:15:15;19.30;99.00
1700;DHT22;847;48.058;7.810;2023-09-07T00:17:44;19.30;99.00
1700;DHT22;847;48.058;7.810;2023-09-07T00:20:11;19.30;99.00
1700;DHT22;847;48.058;7.810;2023-09-07T00:22:40;19.30;99.00
1700;DHT22;847;48.058;7.810;2023-09-07T00:25:08;19.30;99.00
1700;DHT22;847;48.058;7.810;2023-09-07T00:27:35;19.30;99.00
1700;DHT22;847;48.058;7.810;2023-09-07T00:30:02;19.30;99.00
1700;DHT22;847;48.058;7.810;2023-09-07T00:32:29;19.30;99.00
1700;DHT22;847;48.058;7.810;2023-09-07T00:34:56;19.20;99.00
1700;DHT22;847;48.058;7.810;2023-09-07T00:37:23;19.20;99.00
1700;DHT22;847;48.058;7.810;2023-09-07T00:39:50;19.20;99.00
1700;DHT22;847;48.058;7.810;2023-09-07T00:42:19;19.00;99.00
1700;DHT22;847;48.058;7.810;2023-09-07T00:44:46;18.80;99.00
1700;DHT22;847;48.058;7.810;2023-09-07T00:47:13;18.80;99.00
1700;DHT22;847;48.058;7.810;2023-09-07T00:49:40;18.80;99.00
1700;DHT22;847;48.058;7.810;2023-09-07T00:52:08;18.90;99.00
1700;DHT22;847;48.058;7.810;2023-09-07T00:54:35;18.80;99.00
1700;DHT22;847;48.058;7.810;2023-09-07T00:57:04;18.80;99.00
1700;DHT22;847;48.058;7.810;2023-09-07T00:59:33;18.90;99.00
1700;DHT22;847;48.058;7.810;2023-09-07T01:02:00;18.90;99.00
1700;DHT22;847;48.058;7.810;2023-09-07T01:04:27;18.90;99.00
1700;DHT22;847;48.058;7.810;2023-09-07T01:06:57;18.80;99.00
1700;DHT22;847;48.058;7.810;2023-09-07T01:09:28;18.80;99.00
1700;DHT22;847;48.058;7.810;2023-09-07T01:11:57;18.70;99.00
1700;DHT22;847;48.058;7.810;2023-09-07T01:14:23;18.80;99.00
1700;DHT22;847;48.058;7.810;2023-09-07T01:16:52;18.80;99.00
1700;DHT22;847;48.058;7.810;2023-09-07T01:19:19;18.70;99.00
1700;DHT22;847;48.058;7.810;2023-09-07T01:21:47;18.60;99.00
1700;DHT22;847;48.058;7.810;2023-09-07T01:24:15;18.60;99.00
1700;DHT22;847;48.058;7.810;2023-09-07T01:26:43;18.60;99.00
1700;DHT22;847;48.058;7.810;2023-09-07T01:29:14;18.60;99.00
1700;DHT22;847;48.058;7.810;2023-09-07T01:31:42;18.60;99.00
1700;DHT22;847;48.058;7.810;2023-09-07T01:34:09;18.50;99.00
1700;DHT22;847;48.058;7.810;2023-09-07T01:36:36;18.50;99.00
1700;DHT22;847;48.058;7.810;2023-09-07T01:39:04;18.50;99.00
1700;DHT22;847;48.058;7.810;2023-09-07T01:41:32;18.50;99.00
1700;DHT22;847;48.058;7.810;2023-09-07T01:43:59;18.50;99.00
1700;DHT22;847;48.058;7.810;2023-09-07T01:46:26;18.50;99.00
1700;DHT22;847;48.058;7.810;2023-09-07T01:48:53;18.40;99.00
1700;DHT22;847;48.058;7.810;2023-09-07T01:51:20;18.40;99.00
1700;DHT22;847;48.058;7.810;2023-09-07T01:53:47;18.50;99.00
1700;DHT22;847;48.058;7.810;2023-09-07T01:56:16;18.50;99.00
1700;DHT22;847;48.058;7.810;2023-09-07T01:58:42;18.40;99.00
1700;DHT22;847;48.058;7.810;2023-09-07T02:01:20;18.30;99.00
1700;DHT22;847;48.058;7.810;2023-09-07T02:03:47;18.30;99.00
1700;DHT22;847;48.058;7.810;2023-09-07T02:06:14;18.30;99.00
1700;DHT22;847;48.058;7.810;2023-09-07T02:08:40;18.30;99.00
1700;DHT22;847;48.058;7.810;2023-09-07T02:11:07;18.30;99.00
1700;DHT22;847;48.058;7.810;2023-09-07T02:13:35;18.20;99.00
1700;DHT22;847;48.058;7.810;2023-09-07T02:16:03;18.10;99.00
1700;DHT22;847;48.058;7.810;2023-09-07T02:18:31;18.10;99.00
1700;DHT22;847;48.058;7.810;2023-09-07T02:21:01;18.10;99.00
1700;DHT22;847;48.058;7.810;2023-09-07T02:23:28;18.10;99.00
1700;DHT22;847;48.058;7.810;2023-09-07T02:25:55;18.20;99.00
1700;DHT22;847;48.058;7.810;2023-09-07T02:28:23;18.20;99.00
1700;DHT22;847;48.058;7.810;2023-09-07T02:30:51;18.10;99.00
1700;DHT22;847;48.058;7.810;2023-09-07T02:33:18;18.00;99.00
1700;DHT22;847;48.058;7.810;2023-09-07T02:35:45;18.00;99.00
1700;DHT22;847;48.058;7.810;2023-09-07T02:38:11;18.00;99.00
1700;DHT22;847;48.058;7.810;2023-09-07T02:40:40;17.80;99.00
1700;DHT22;847;48.058;7.810;2023-09-07T02:43:08;17.80;99.00
1700;DHT22;847;48.058;7.810;2023-09-07T02:45:35;17.90;99.00
1700;DHT22;847;48.058;7.810;2023-09-07T02:48:04;17.80;99.00
1700;DHT22;847;48.058;7.810;2023-09-07T02:50:33;17.80;99.00
1700;DHT22;847;48.058;7.810;2023-09-07T02:53:00;17.70;99.00
1700;DHT22;847;48.058;7.810;2023-09-07T02:55:28;17.70;99.00
1700;DHT22;847;48.058;7.810;2023-09-07T02:57:56;17.70;99.00
1700;DHT22;847;48.058;7.810;2023-09-07T03:00:23;17.70;99.00
1700;DHT22;847;48.058;7.810;2023-09-07T03:02:50;17.70;99.00
1700;DHT22;847;48.058;7.810;2023-09-07T03:05:18;17.70;99.00
1700;DHT22;847;48.058;7.810;2023-09-07T03:07:45;17.70;99.00
1700;DHT22;847;48.058;7.810;2023-09-07T03:10:13;17.70;99.00
1700;DHT22;847;48.058;7.810;2023-09-07T03:12:39;17.70;99.00
1700;DHT22;847;48.058;7.810;2023-09-07T03:15:07;17.60;99.00
1700;DHT22;847;48.058;7.810;2023-09-07T03:17:34;17.60;99.00
1700;DHT22;847;48.058;7.810;2023-09-07T03:20:01;17.60;99.00
1700;DHT22;847;48.058;7.810;2023-09-07T03:22:32;17.60;99.00
1700;DHT22;847;48.058;7.810;2023-09-07T03:24:59;17.50;99.00
1700;DHT22;847;48.058;7.810;2023-09-07T03:27:26;17.50;99.00
1700;DHT22;847;48.058;7.810;2023-09-07T03:29:52;17.50;99.00
1700;DHT22;847;48.058;7.810;2023-09-07T03:32:19;17.50;99.00
1700;DHT22;847;48.058;7.810;2023-09-07T03:34:46;17.60;99.00
1700;DHT22;847;48.058;7.810;2023-09-07T03:37:13;17.60;99.00
1700;DHT22;847;48.058;7.810;2023-09-07T03:39:41;17.60;99.00
1700;DHT22;847;48.058;7.810;2023-09-07T03:42:07;17.50;99.00
1700;DHT22;847;48.058;7.810;2023-09-07T03:44:34;17.50;99.00
1700;DHT22;847;48.058;7.810;2023-09-07T03:47:01;17.50;99.00
1700;DHT22;847;48.058;7.810;2023-09-07T03:49:29;17.50;99.00
1700;DHT22;847;48.058;7.810;2023-09-07T03:51:55;17.50;99.00
1700;DHT22;847;48.058;7.810;2023-09-07T03:54:22;17.40;99.00
1700;DHT22;847;48.058;7.810;2023-09-07T03:56:50;17.40;99.00
1700;DHT22;847;48.058;7.810;2023-09-07T03:59:17;17.40;99.00
1700;DHT22;847;48.058;7.810;2023-09-07T04:01:44;17.40;99.00
1700;DHT22;847;48.058;7.810;2023-09-07T04:04:10;17.40;99.00
1700;DHT22;847;48.058;7.810;2023-09-07T04:06:37;17.40;99.00
1700;DHT22;847;48.058;7.810;2023-09-07T04:09:04;17.40;99.00
1700;DHT22;847;48.058;7.810;2023-09-07T04:11:31;17.30;99.00
1700;DHT22;847;48.058;7.810;2023-09-07T04:13:59;17.30;99.00
1700;DHT22;847;48.058;7.810;2023-09-07T04:16:26;17.20;99.00
1700;DHT22;847;48.058;7.810;2023-09-07T04:18:52;17.30;99.00
1700;DHT22;847;48.058;7.810;2023-09-07T04:21:19;17.30;99.00
1700;DHT22;847;48.058;7.810;2023-09-07T04:23:46;17.30;99.00
1700;DHT22;847;48.058;7.810;2023-09-07T04:26:13;17.30;99.00
1700;DHT22;847;48.058;7.810;2023-09-07T04:28:40;17.30;99.00
1700;DHT22;847;48.058;7.810;2023-09-07T04:31:09;17.30;99.00
1700;DHT22;847;48.058;7.810;2023-09-07T04:33:37;17.30;99.00
1700;DHT22;847;48.058;7.810;2023-09-07T04:36:08;17.30;99.00
1700;DHT22;847;48.058;7.810;2023-09-07T04:38:35;17.20;99.00
1700;DHT22;847;48.058;7.810;2023-09-07T04:41:06;17.20;99.00
1700;DHT22;847;48.058;7.810;2023-09-07T04:43:33;17.20;99.00
1700;DHT22;847;48.058;7.810;2023-09-07T04:46:00;17.20;99.00
1700;DHT22;847;48.058;7.810;2023-09-07T04:48:28;17.20;99.00
1700;DHT22;847;48.058;7.810;2023-09-07T04:50:58;17.10;99.00
1700;DHT22;847;48.058;7.810;2023-09-07T04:53:24;17.00;99.00
1700;DHT22;847;48.058;7.810;2023-09-07T04:55:51;17.00;99.00
1700;DHT22;847;48.058;7.810;2023-09-07T04:58:18;17.00;99.00
1700;DHT22;847;48.058;7.810;2023-09-07T05:00:45;17.00;99.00
1700;DHT22;847;48.058;7.810;2023-09-07T05:03:14;17.00;99.00
1700;DHT22;847;48.058;7.810;2023-09-07T05:05:42;17.00;99.00
1700;DHT22;847;48.058;7.810;2023-09-07T05:08:10;16.90;99.00
1700;DHT22;847;48.058;7.810;2023-09-07T05:10:38;17.00;99.00
1700;DHT22;847;48.058;7.810;2023-09-07T05:13:04;17.00;99.00
1700;DHT22;847;48.058;7.810;2023-09-07T05:15:31;17.00;99.00
1700;DHT22;847;48.058;7.810;2023-09-07T05:17:58;16.80;99.00
1700;DHT22;847;48.058;7.810;2023-09-07T05:20:25;16.70;99.00
1700;DHT22;847;48.058;7.810;2023-09-07T05:22:54;16.70;99.00
1700;DHT22;847;48.058;7.810;2023-09-07T05:25:22;16.80;99.00
1700;DHT22;847;48.058;7.810;2023-09-07T05:27:49;16.90;99.00
1700;DHT22;847;48.058;7.810;2023-09-07T05:30:15;16.90;99.00
1700;DHT22;847;48.058;7.810;2023-09-07T05:32:42;16.90;99.00
1700;DHT22;847;48.058;7.810;2023-09-07T05:35:09;16.80;99.00
1700;DHT22;847;48.058;7.810;2023-09-07T05:37:37;16.90;99.00
1700;DHT22;847;48.058;7.810;2023-09-07T05:40:07;17.00;99.00
1700;DHT22;847;48.058;7.810;2023-09-07T05:42:34;17.00;99.00
1700;DHT22;847;48.058;7.810;2023-09-07T05:45:01;16.90;99.00
1700;DHT22;847;48.058;7.810;2023-09-07T05:47:29;16.80;99.00
1700;DHT22;847;48.058;7.810;2023-09-07T05:49:56;16.80;99.00
1700;DHT22;847;48.058;7.810;2023-09-07T05:52:23;16.70;99.00
1700;DHT22;847;48.058;7.810;2023-09-07T05:54:49;16.70;99.00
1700;DHT22;847;48.058;7.810;2023-09-07T05:57:18;16.80;99.00
1700;DHT22;847;48.058;7.810;2023-09-07T05:59:44;16.90;99.00
1700;DHT22;847;48.058;7.810;2023-09-07T06:02:11;17.00;99.00
1700;DHT22;847;48.058;7.810;2023-09-07T06:07:57;17.10;99.00
1700;DHT22;847;48.058;7.810;2023-09-07T06:10:23;17.10;99.00
1700;DHT22;847;48.058;7.810;2023-09-07T06:12:51;17.20;99.00
1700;DHT22;847;48.058;7.810;2023-09-07T06:15:18;17.20;99.00
1700;DHT22;847;48.058;7.810;2023-09-07T06:17:45;17.30;99.00
1700;DHT22;847;48.058;7.810;2023-09-07T06:20:15;17.40;99.00
1700;DHT22;847;48.058;7.810;2023-09-07T06:22:41;17.40;99.00
1700;DHT22;847;48.058;7.810;2023-09-07T06:25:10;17.50;99.00
1700;DHT22;847;48.058;7.810;2023-09-07T06:27:39;17.50;99.00
1700;DHT22;847;48.058;7.810;2023-09-07T06:30:08;17.60;99.00
1700;DHT22;847;48.058;7.810;2023-09-07T06:32:35;17.70;99.00
1700;DHT22;847;48.058;7.810;2023-09-07T06:35:02;17.70;99.00
1700;DHT22;847;48.058;7.810;2023-09-07T06:37:29;17.80;99.00
1700;DHT22;847;48.058;7.810;2023-09-07T06:39:56;17.90;99.00
1700;DHT22;847;48.058;7.810;2023-09-07T06:42:22;17.90;99.00
1700;DHT22;847;48.058;7.810;2023-09-07T06:44:49;18.00;99.00
1700;DHT22;847;48.058;7.810;2023-09-07T06:47:19;18.00;99.00
1700;DHT22;847;48.058;7.810;2023-09-07T06:49:45;18.10;99.00
1700;DHT22;847;48.058;7.810;2023-09-07T06:52:12;18.10;99.00
1700;DHT22;847;48.058;7.810;2023-09-07T06:54:40;18.20;99.00
1700;DHT22;847;48.058;7.810;2023-09-07T06:57:07;18.20;99.00
1700;DHT22;847;48.058;7.810;2023-09-07T06:59:34;18.30;99.00
1700;DHT22;847;48.058;7.810;2023-09-07T07:02:01;18.30;99.00
1700;DHT22;847;48.058;7.810;2023-09-07T07:04:31;18.40;99.00
1700;DHT22;847;48.058;7.810;2023-09-07T07:06:58;18.40;99.00
1700;DHT22;847;48.058;7.810;2023-09-07T07:09:26;18.40;99.00
1700;DHT22;847;48.058;7.810;2023-09-07T07:11:55;18.50;99.00
1700;DHT22;847;48.058;7.810;2023-09-07T07:14:21;18.50;99.00
1700;DHT22;847;48.058;7.810;2023-09-07T07:16:48;18.60;99.00
1700;DHT22;847;48.058;7.810;2023-09-07T07:19:15;18.60;99.00
1700;DHT22;847;48.058;7.810;2023-09-07T07:21:43;18.70;99.00
1700;DHT22;847;48.058;7.810;2023-09-07T07:24:10;18.70;99.00
1700;DHT22;847;48.058;7.810;2023-09-07T07:26:37;18.80;99.00
1700;DHT22;847;48.058;7.810;2023-09-07T07:29:03;18.80;99.00
1700;DHT22;847;48.058;7.810;2023-09-07T07:31:30;18.90;99.00
1700;DHT22;847;48.058;7.810;2023-09-07T07:33:57;18.90;99.00
1700;DHT22;847;48.058;7.810;2023-09-07T07:36:24;19.00;99.00
1700;DHT22;847;48.058;7.810;2023-09-07T07:38:52;19.10;99.00
1700;DHT22;847;48.058;7.810;2023-09-07T07:41:20;19.10;99.00
1700;DHT22;847;48.058;7.810;2023-09-07T07:43:47;19.10;99.00
1700;DHT22;847;48.058;7.810;2023-09-07T07:46:13;19.20;99.00
1700;DHT22;847;48.058;7.810;2023-09-07T07:48:41;19.20;99.00
1700;DHT22;847;48.058;7.810;2023-09-07T07:51:08;19.40;99.00
1700;DHT22;847;48.058;7.810;2023-09-07T07:53:34;19.40;98.80
1700;DHT22;847;48.058;7.810;2023-09-07T07:56:03;19.50;99.00
1700;DHT22;847;48.058;7.810;2023-09-07T07:58:29;19.50;99.00
1700;DHT22;847;48.058;7.810;2023-09-07T08:00:56;19.60;99.00
1700;DHT22;847;48.058;7.810;2023-09-07T08:03:24;19.70;98.70
1700;DHT22;847;48.058;7.810;2023-09-07T08:05:51;19.70;98.10
1700;DHT22;847;48.058;7.810;2023-09-07T08:08:17;19.80;97.60
1700;DHT22;847;48.058;7.810;2023-09-07T08:10:44;19.80;97.80
1700;DHT22;847;48.058;7.810;2023-09-07T08:13:13;19.80;97.50
1700;DHT22;847;48.058;7.810;2023-09-07T08:15:40;19.90;98.00
1700;DHT22;847;48.058;7.810;2023-09-07T08:18:06;19.90;97.60
1700;DHT22;847;48.058;7.810;2023-09-07T08:20:34;20.00;97.00
1700;DHT22;847;48.058;7.810;2023-09-07T08:23:02;20.10;97.70
1700;DHT22;847;48.058;7.810;2023-09-07T08:25:29;20.20;98.60
1700;DHT22;847;48.058;7.810;2023-09-07T08:27:56;20.20;97.80
1700;DHT22;847;48.058;7.810;2023-09-07T08:30:26;20.30;98.30
1700;DHT22;847;48.058;7.810;2023-09-07T08:32:53;20.40;97.60
1700;DHT22;847;48.058;7.810;2023-09-07T08:35:20;20.40;97.60
1700;DHT22;847;48.058;7.810;2023-09-07T08:37:52;20.40;97.70
1700;DHT22;847;48.058;7.810;2023-09-07T08:40:19;20.50;96.80
1700;DHT22;847;48.058;7.810;2023-09-07T08:42:46;20.60;96.90
1700;DHT22;847;48.058;7.810;2023-09-07T08:45:14;20.60;96.90
1700;DHT22;847;48.058;7.810;2023-09-07T08:47:46;20.60;97.30
1700;DHT22;847;48.058;7.810;2023-09-07T08:50:13;20.70;97.70
1700;DHT22;847;48.058;7.810;2023-09-07T08:52:42;20.80;97.30
1700;DHT22;847;48.058;7.810;2023-09-07T08:55:11;20.80;96.70
1700;DHT22;847;48.058;7.810;2023-09-07T08:57:39;20.90;97.40
1700;DHT22;847;48.058;7.810;2023-09-07T09:00:07;21.00;97.40
1700;DHT22;847;48.058;7.810;2023-09-07T09:02:39;21.00;97.30
1700;DHT22;847;48.058;7.810;2023-09-07T09:05:09;21.10;97.20
1700;DHT22;847;48.058;7.810;2023-09-07T09:07:36;21.20;97.30
1700;DHT22;847;48.058;7.810;2023-09-07T09:10:04;21.30;97.00
1700;DHT22;847;48.058;7.810;2023-09-07T09:12:31;21.40;96.50
1700;DHT22;847;48.058;7.810;2023-09-07T09:14:59;21.50;95.90
1700;DHT22;847;48.058;7.810;2023-09-07T09:17:25;21.60;96.20
1700;DHT22;847;48.058;7.810;2023-09-07T09:19:52;21.60;95.70
1700;DHT22;847;48.058;7.810;2023-09-07T09:22:21;21.70;96.00
1700;DHT22;847;48.058;7.810;2023-09-07T09:24:48;21.80;95.10
1700;DHT22;847;48.058;7.810;2023-09-07T09:27:15;21.90;94.90
1700;DHT22;847;48.058;7.810;2023-09-07T09:29:42;21.90;95.90
1700;DHT22;847;48.058;7.810;2023-09-07T09:32:09;22.00;96.50
1700;DHT22;847;48.058;7.810;2023-09-07T09:34:37;22.00;95.50
1700;DHT22;847;48.058;7.810;2023-09-07T09:37:04;22.10;96.20
1700;DHT22;847;48.058;7.810;2023-09-07T09:39:40;22.10;96.00
1700;DHT22;847;48.058;7.810;2023-09-07T09:42:08;22.20;94.20
1700;DHT22;847;48.058;7.810;2023-09-07T09:44:36;22.30;95.50
1700;DHT22;847;48.058;7.810;2023-09-07T09:47:05;22.40;94.60
1700;DHT22;847;48.058;7.810;2023-09-07T09:49:33;22.50;94.40
1700;DHT22;847;48.058;7.810;2023-09-07T09:52:01;22.50;94.40
1700;DHT22;847;48.058;7.810;2023-09-07T09:54:28;22.50;95.10
1700;DHT22;847;48.058;7.810;2023-09-07T09:56:56;22.60;94.90
1700;DHT22;847;48.058;7.810;2023-09-07T09:59:23;22.60;95.70
1700;DHT22;847;48.058;7.810;2023-09-07T10:01:51;22.70;94.70
1700;DHT22;847;48.058;7.810;2023-09-07T10:04:19;22.90;93.70
1700;DHT22;847;48.058;7.810;2023-09-07T10:06:54;22.90;93.10
1700;DHT22;847;48.058;7.810;2023-09-07T10:09:21;23.00;93.30
1700;DHT22;847;48.058;7.810;2023-09-07T10:11:52;23.00;93.20
1700;DHT22;847;48.058;7.810;2023-09-07T10:14:21;23.10;93.00
1700;DHT22;847;48.058;7.810;2023-09-07T10:16:49;23.20;93.00
1700;DHT22;847;48.058;7.810;2023-09-07T10:19:18;23.30;93.00
1700;DHT22;847;48.058;7.810;2023-09-07T10:21:45;23.30;93.40
1700;DHT22;847;48.058;7.810;2023-09-07T10:24:23;23.30;93.50
1700;DHT22;847;48.058;7.810;2023-09-07T10:26:57;23.40;92.50
1700;DHT22;847;48.058;7.810;2023-09-07T10:29:25;23.40;92.40
1700;DHT22;847;48.058;7.810;2023-09-07T10:31:53;23.60;92.80
1700;DHT22;847;48.058;7.810;2023-09-07T10:34:20;23.70;92.70
1700;DHT22;847;48.058;7.810;2023-09-07T10:36:48;23.70;92.40
1700;DHT22;847;48.058;7.810;2023-09-07T10:39:18;23.70;92.30
1700;DHT22;847;48.058;7.810;2023-09-07T10:41:45;23.80;91.30
1700;DHT22;847;48.058;7.810;2023-09-07T10:44:12;23.90;91.40
1700;DHT22;847;48.058;7.810;2023-09-07T10:46:40;23.90;90.80
1700;DHT22;847;48.058;7.810;2023-09-07T10:49:08;24.00;91.00
1700;DHT22;847;48.058;7.810;2023-09-07T10:51:46;24.00;90.30
1700;DHT22;847;48.058;7.810;2023-09-07T10:54:16;24.10;90.50
1700;DHT22;847;48.058;7.810;2023-09-07T10:56:44;24.20;90.30
1700;DHT22;847;48.058;7.810;2023-09-07T10:59:12;24.30;88.90
1700;DHT22;847;48.058;7.810;2023-09-07T11:01:40;24.40;89.10
1700;DHT22;847;48.058;7.810;2023-09-07T11:04:07;24.30;88.30
1700;DHT22;847;48.058;7.810;2023-09-07T11:06:37;24.40;87.90
1700;DHT22;847;48.058;7.810;2023-09-07T11:09:04;24.40;88.60
1700;DHT22;847;48.058;7.810;2023-09-07T11:11:35;24.40;89.10
1700;DHT22;847;48.058;7.810;2023-09-07T11:14:02;24.40;88.50
1700;DHT22;847;48.058;7.810;2023-09-07T11:16:30;24.60;88.80
1700;DHT22;847;48.058;7.810;2023-09-07T11:19:02;24.50;89.20
1700;DHT22;847;48.058;7.810;2023-09-07T11:21:30;24.60;89.30
1700;DHT22;847;48.058;7.810;2023-09-07T11:23:58;24.60;88.50
1700;DHT22;847;48.058;7.810;2023-09-07T11:26:24;24.60;88.30
1700;DHT22;847;48.058;7.810;2023-09-07T11:28:51;24.80;87.30
1700;DHT22;847;48.058;7.810;2023-09-07T11:31:19;24.80;87.90
1700;DHT22;847;48.058;7.810;2023-09-07T11:33:48;24.90;87.40
1700;DHT22;847;48.058;7.810;2023-09-07T11:36:16;25.10;86.10
1700;DHT22;847;48.058;7.810;2023-09-07T11:38:48;25.10;86.40
1700;DHT22;847;48.058;7.810;2023-09-07T11:41:15;25.10;85.70
1700;DHT22;847;48.058;7.810;2023-09-07T11:43:42;25.20;85.60
1700;DHT22;847;48.058;7.810;2023-09-07T11:46:10;25.40;85.00
1700;DHT22;847;48.058;7.810;2023-09-07T11:48:37;25.40;85.00
1700;DHT22;847;48.058;7.810;2023-09-07T11:51:04;25.50;84.10
1700;DHT22;847;48.058;7.810;2023-09-07T11:53:33;25.50;84.10
1700;DHT22;847;48.058;7.810;2023-09-07T11:56:00;25.60;83.30
1700;DHT22;847;48.058;7.810;2023-09-07T11:58:27;25.70;83.40
1700;DHT22;847;48.058;7.810;2023-09-07T12:00:54;25.60;84.40
1700;DHT22;847;48.058;7.810;2023-09-07T12:03:21;25.70;84.70
1700;DHT22;847;48.058;7.810;2023-09-07T12:05:47;25.90;84.20
1700;DHT22;847;48.058;7.810;2023-09-07T12:08:14;26.00;82.40
1700;DHT22;847;48.058;7.810;2023-09-07T12:10:42;26.00;83.20
1700;DHT22;847;48.058;7.810;2023-09-07T12:13:09;26.00;82.80
1700;DHT22;847;48.058;7.810;2023-09-07T12:15:36;26.00;83.40
1700;DHT22;847;48.058;7.810;2023-09-07T12:18:03;26.10;83.20
1700;DHT22;847;48.058;7.810;2023-09-07T12:20:30;26.30;84.00
1700;DHT22;847;48.058;7.810;2023-09-07T12:22:57;26.40;82.40
1700;DHT22;847;48.058;7.810;2023-09-07T12:25:23;26.40;82.30
1700;DHT22;847;48.058;7.810;2023-09-07T12:27:52;26.40;82.10
1700;DHT22;847;48.058;7.810;2023-09-07T12:30:19;26.50;81.40
1700;DHT22;847;48.058;7.810;2023-09-07T12:32:46;26.60;82.40
1700;DHT22;847;48.058;7.810;2023-09-07T12:35:13;26.50;81.80
1700;DHT22;847;48.058;7.810;2023-09-07T12:37:40;26.50;81.50
1700;DHT22;847;48.058;7.810;2023-09-07T12:40:08;26.60;80.00
1700;DHT22;847;48.058;7.810;2023-09-07T12:42:38;26.60;79.90
1700;DHT22;847;48.058;7.810;2023-09-07T12:45:07;26.70;77.70
1700;DHT22;847;48.058;7.810;2023-09-07T12:47:34;26.80;78.20
1700;DHT22;847;48.058;7.810;2023-09-07T12:50:01;26.90;79.00
1700;DHT22;847;48.058;7.810;2023-09-07T12:52:28;27.00;79.10
1700;DHT22;847;48.058;7.810;2023-09-07T12:54:55;27.00;80.90
1700;DHT22;847;48.058;7.810;2023-09-07T12:57:21;27.00;80.60
1700;DHT22;847;48.058;7.810;2023-09-07T12:59:49;26.90;80.80
1700;DHT22;847;48.058;7.810;2023-09-07T13:02:17;26.90;79.70
1700;DHT22;847;48.058;7.810;2023-09-07T13:04:44;26.90;80.30
1700;DHT22;847;48.058;7.810;2023-09-07T13:07:10;27.10;79.60
1700;DHT22;847;48.058;7.810;2023-09-07T13:09:37;27.20;78.70
1700;DHT22;847;48.058;7.810;2023-09-07T13:12:05;27.20;79.00
1700;DHT22;847;48.058;7.810;2023-09-07T13:14:32;27.20;78.30
1700;DHT22;847;48.058;7.810;2023-09-07T13:16:58;27.30;79.30
1700;DHT22;847;48.058;7.810;2023-09-07T13:19:27;27.40;79.10
1700;DHT22;847;48.058;7.810;2023-09-07T13:21:54;27.30;77.00
1700;DHT22;847;48.058;7.810;2023-09-07T13:24:21;27.30;78.00
1700;DHT22;847;48.058;7.810;2023-09-07T13:26:50;27.30;78.50
1700;DHT22;847;48.058;7.810;2023-09-07T13:29:16;27.30;77.50
1700;DHT22;847;48.058;7.810;2023-09-07T13:31:43;27.30;77.90
1700;DHT22;847;48.058;7.810;2023-09-07T13:34:10;27.40;77.30
1700;DHT22;847;48.058;7.810;2023-09-07T13:36:38;27.40;78.00
1700;DHT22;847;48.058;7.810;2023-09-07T13:39:05;27.40;77.20
1700;DHT22;847;48.058;7.810;2023-09-07T13:41:32;27.40;76.90
1700;DHT22;847;48.058;7.810;2023-09-07T13:43:59;27.60;75.30
1700;DHT22;847;48.058;7.810;2023-09-07T13:46:26;27.60;76.80
1700;DHT22;847;48.058;7.810;2023-09-07T13:48:52;27.60;76.80
1700;DHT22;847;48.058;7.810;2023-09-07T13:51:19;27.70;75.80
1700;DHT22;847;48.058;7.810;2023-09-07T13:53:47;27.80;76.10
1700;DHT22;847;48.058;7.810;2023-09-07T13:56:15;27.90;75.00
1700;DHT22;847;48.058;7.810;2023-09-07T13:58:42;27.90;74.40
1700;DHT22;847;48.058;7.810;2023-09-07T14:01:09;28.00;74.00
1700;DHT22;847;48.058;7.810;2023-09-07T14:03:35;28.00;74.20
1700;DHT22;847;48.058;7.810;2023-09-07T14:06:03;28.00;73.90
1700;DHT22;847;48.058;7.810;2023-09-07T14:08:30;27.90;74.30
1700;DHT22;847;48.058;7.810;2023-09-07T14:11:00;27.80;74.00
1700;DHT22;847;48.058;7.810;2023-09-07T14:13:26;27.80;74.30
1700;DHT22;847;48.058;7.810;2023-09-07T14:15:53;27.80;74.20
1700;DHT22;847;48.058;7.810;2023-09-07T14:18:20;27.80;75.90
1700;DHT22;847;48.058;7.810;2023-09-07T14:20:47;28.10;75.60
1700;DHT22;847;48.058;7.810;2023-09-07T14:23:13;28.20;75.10
1700;DHT22;847;48.058;7.810;2023-09-07T14:25:40;28.40;73.20
1700;DHT22;847;48.058;7.810;2023-09-07T14:28:11;28.50;69.90
1700;DHT22;847;48.058;7.810;2023-09-07T14:30:38;28.50;71.30
1700;DHT22;847;48.058;7.810;2023-09-07T14:33:05;28.40;72.30
1700;DHT22;847;48.058;7.810;2023-09-07T14:35:32;28.50;71.10
1700;DHT22;847;48.058;7.810;2023-09-07T14:37:58;28.40;72.20
1700;DHT22;847;48.058;7.810;2023-09-07T14:40:25;28.40;72.10
1700;DHT22;847;48.058;7.810;2023-09-07T14:42:52;28.50;69.70
1700;DHT22;847;48.058;7.810;2023-09-07T14:45:24;28.50;69.60
1700;DHT22;847;48.058;7.810;2023-09-07T14:47:51;28.60;69.80
1700;DHT22;847;48.058;7.810;2023-09-07T14:50:18;28.70;70.30
1700;DHT22;847;48.058;7.810;2023-09-07T14:52:45;28.70;70.60
1700;DHT22;847;48.058;7.810;2023-09-07T14:55:13;28.70;71.20
1700;DHT22;847;48.058;7.810;2023-09-07T14:57:40;28.60;73.10
1700;DHT22;847;48.058;7.810;2023-09-07T15:00:09;28.60;73.40
1700;DHT22;847;48.058;7.810;2023-09-07T15:02:38;28.60;72.30
1700;DHT22;847;48.058;7.810;2023-09-07T15:05:05;28.70;72.40
1700;DHT22;847;48.058;7.810;2023-09-07T15:07:32;28.80;72.50
1700;DHT22;847;48.058;7.810;2023-09-07T15:09:59;28.80;72.30
1700;DHT22;847;48.058;7.810;2023-09-07T15:12:25;28.90;72.20
1700;DHT22;847;48.058;7.810;2023-09-07T15:14:52;29.00;72.30
1700;DHT22;847;48.058;7.810;2023-09-07T15:17:19;29.00;71.40
1700;DHT22;847;48.058;7.810;2023-09-07T15:19:50;29.00;71.50
1700;DHT22;847;48.058;7.810;2023-09-07T15:22:16;29.10;71.20
1700;DHT22;847;48.058;7.810;2023-09-07T15:24:43;29.10;72.10
1700;DHT22;847;48.058;7.810;2023-09-07T15:27:10;29.10;71.40
1700;DHT22;847;48.058;7.810;2023-09-07T15:29:37;29.10;71.00
1700;DHT22;847;48.058;7.810;2023-09-07T15:32:05;29.00;71.30
1700;DHT22;847;48.058;7.810;2023-09-07T15:34:35;29.00;70.70
1700;DHT22;847;48.058;7.810;2023-09-07T15:37:04;29.10;70.70
1700;DHT22;847;48.058;7.810;2023-09-07T15:39:31;29.10;70.70
1700;DHT22;847;48.058;7.810;2023-09-07T15:41:58;29.10;70.80
1700;DHT22;847;48.058;7.810;2023-09-07T15:44:25;29.10;70.80
1700;DHT22;847;48.058;7.810;2023-09-07T15:46:55;29.10;71.00
1700;DHT22;847;48.058;7.810;2023-09-07T15:49:22;29.00;70.10
1700;DHT22;847;48.058;7.810;2023-09-07T15:51:49;29.00;70.30
1700;DHT22;847;48.058;7.810;2023-09-07T15:54:17;29.00;69.70
1700;DHT22;847;48.058;7.810;2023-09-07T15:56:44;28.90;70.20
1700;DHT22;847;48.058;7.810;2023-09-07T15:59:10;28.90;70.90
1700;DHT22;847;48.058;7.810;2023-09-07T16:01:37;28.80;71.80
1700;DHT22;847;48.058;7.810;2023-09-07T16:04:04;29.30;71.10
1700;DHT22;847;48.058;7.810;2023-09-07T16:06:31;29.50;71.10
1700;DHT22;847;48.058;7.810;2023-09-07T16:08:59;29.80;71.10
1700;DHT22;847;48.058;7.810;2023-09-07T16:11:27;30.10;69.80
1700;DHT22;847;48.058;7.810;2023-09-07T16:13:54;30.10;70.40
1700;DHT22;847;48.058;7.810;2023-09-07T16:16:21;30.30;69.60
1700;DHT22;847;48.058;7.810;2023-09-07T16:18:49;30.10;69.50
1700;DHT22;847;48.058;7.810;2023-09-07T16:21:16;29.90;69.80